Time;durP1;ratioP1;P1;durP2;ratioP2;P2;SDS_P1;SDS_P2;PMS_P1;PMS_P2;Temp;Humidity;BMP_temperature;BMP_pressure;BME280_temperature;BME280_humidity;BME280_pressure;Samples;Min_cycle;Max_cycle;Signal;HPM_P1;HPM_P2
2023/01/18 00:02:08;;;;;;;;;;;;;;;;;;5032940;28;1831;-44
2023/01/18 00:04:36;;;;;;;;;;;;;;;;;;5033095;28;1996;-45
2023/01/18 00:07:03;;;;;;;;;;;;;;;;;;5032870;28;1941;-43
2023/01/18 00:09:30;;;;;;;;;;;;;;;;;;5032847;28;2034;-45
2023/01/18 00:11:57;;;;;;;;;;;;;;;;;;5031787;28;1604;-43
2023/01/18 00:14:24;;;;;;;;;;;;;;;;;;5032675;28;1795;-42
2023/01/18 00:16:51;;;;;;;;;;;;;;;;;;5032939;28;1864;-46
2023/01/18 00:19:19;;;;;;;;;;;;;;;;;;5032627;28;2088;-43
2023/01/18 00:21:53;;;;;;;;;;;;;;;;;;5032765;28;2014;-43
2023/01/18 00:24:21;;;;;;;;;;;;;;;;;;5032812;28;1763;-43
2023/01/18 00:26:49;;;;;;;;;;;;;;;;;;5032561;28;2105;-43
2023/01/18 00:29:16;;;;;;;;;;;;;;;;;;5031088;28;1918;-44
2023/01/18 00:31:44;;;;;;;;;;;;;;;;;;5032184;28;1843;-42
2023/01/18 00:34:11;;;;;;;;;;;;;;;;;;5032485;28;1907;-43
2023/01/18 00:36:39;;;;;;;;;;;;;;;;;;5032334;28;1548;-43
2023/01/18 00:39:07;;;;;;;;;;;;;;;;;;5031284;28;2085;-44
2023/01/18 00:43:37;;;;;;;;;;;;;;;;;;5032370;28;1981;-44
2023/01/18 00:44:21;;;;;;;;;;;;;;;;;;5032569;28;2117;-46
2023/01/18 00:46:49;;;;;;;;;;;;;;;;;;5032240;28;2153;-45
2023/01/18 00:49:16;;;;;;;;;;;;;;;;;;5032162;28;2375;-42
2023/01/18 00:51:43;;;;;;;;;;;;;;;;;;5032362;28;1567;-46
2023/01/18 00:54:10;;;;;;;;;;;;;;;;;;5031978;28;1454;-44
2023/01/18 00:56:37;;;;;;;;;;;;;;;;;;5032140;28;2118;-44
2023/01/18 00:59:05;;;;;;;;;;;;;;;;;;5032126;28;1860;-43
2023/01/18 01:01:32;;;;;;;;;;;;;;;;;;5031975;28;1991;-43
2023/01/18 01:06:45;;;;;;;;;;;;;;;;;;5031460;28;2076;-42
2023/01/18 01:09:18;;;;;;;;;;;;;;;;;;5031667;28;1970;-44
2023/01/18 01:28:23;;;;;;;;;;;;;;;;;;5031562;28;1912;-45
2023/01/18 01:30:50;;;;;;;;;;;;;;;;;;5031308;28;2055;-41
2023/01/18 01:33:18;;;;;;;;;;;;;;;;;;5031222;28;2006;-43
2023/01/18 01:35:45;;;;;;;;;;;;;;;;;;5031285;28;2089;-42
2023/01/18 01:38:12;;;;;;;;;;;;;;;;;;5031322;28;1782;-46
2023/01/18 01:40:39;;;;;;;;;;;;;;;;;;5031414;28;2165;-42
2023/01/18 01:43:12;;;;;;;;;;;;;;;;;;5031084;28;1667;-42
2023/01/18 01:45:39;;;;;;;;;;;;;;;;;;5031274;28;1934;-43
2023/01/18 01:48:08;;;;;;;;;;;;;;;;;;5031070;28;1969;-42
2023/01/18 01:50:37;;;;;;;;;;;;;;;;;;5031076;28;1879;-45
2023/01/18 01:53:05;;;;;;;;;;;;;;;;;;5031232;28;1874;-45
2023/01/18 01:55:36;;;;;;;;;;;;;;;;;;5031239;28;2017;-44
2023/01/18 01:58:09;;;;;;;;;;;;;;;;;;5029946;28;2136;-42
2023/01/18 02:00:37;;;;;;;;;;;;;;;;;;5031066;28;1624;-42
2023/01/18 02:03:06;;;;;;;;;;;;;;;;;;5030887;28;1780;-41
2023/01/18 02:05:34;;;;;;;;;;;;;;;;;;5031140;28;1691;-42
2023/01/18 02:08:02;;;;;;;;;;;;;;;;;;5030813;28;2158;-41
2023/01/18 02:10:29;;;;;;;;;;;;;;;;;;5031151;28;2266;-42
2023/01/18 02:12:57;;;;;;;;;;;;;;;;;;5031082;28;1673;-45
2023/01/18 02:15:28;;;;;;;;;;;;;;;;;;5030899;28;2049;-43
2023/01/18 02:18:02;;;;;;;;;;;;;;;;;;5031171;28;1859;-43
2023/01/18 02:20:54;;;;;;;;;;;;;;;;;;5031080;28;2343;-43
2023/01/18 02:23:21;;;;;;;;;;;;;;;;;;5034975;28;1761;-42
2023/01/18 02:25:48;;;;;;;;;;;;;;;;;;5035536;28;2158;-44
2023/01/18 02:28:16;;;;;;;;;;;;;;;;;;5034717;28;2043;-45
2023/01/18 02:30:49;;;;;;;;;;;;;;;;;;5035001;28;1935;-45
2023/01/18 02:33:23;;;;;;;;;;;;;;;;;;5017055;28;1950;-42
2023/01/18 02:35:55;;;;;;;;;;;;;;;;;;5034774;28;2024;-43
2023/01/18 02:38:24;;;;;;;;;;;;;;;;;;5034707;28;1894;-42
2023/01/18 02:40:51;;;;;;;;;;;;;;;;;;5034869;28;2041;-42
2023/01/18 02:48:54;;;;;;;;;;;;;;;;;;5034248;28;1973;-42
2023/01/18 02:51:22;;;;;;;;;;;;;;;;;;5034624;28;2197;-43
2023/01/18 02:53:50;;;;;;;;;;;;;;;;;;5034320;28;1916;-42
2023/01/18 02:56:20;;;;;;;;;;;;;;;;;;5034277;28;1845;-42
2023/01/18 02:58:50;;;;;;;;;;;;;;;;;;5034344;28;1498;-41
2023/01/18 03:01:38;;;;;;;;;;;;;;;;;;5033905;28;2201;-42
2023/01/18 03:04:20;;;;;;;;;;;;;;;;;;5034069;28;1651;-41
2023/01/18 03:06:52;;;;;;;;;;;;;;;;;;5033970;28;1600;-43
2023/01/18 03:09:20;;;;;;;;;;;;;;;;;;5034136;28;1992;-40
2023/01/18 03:11:55;;;;;;;;;;;;;;;;;;5033965;28;1840;-42
2023/01/18 03:14:37;;;;;;;;;;;;;;;;;;5034266;28;2120;-42
2023/01/18 03:17:10;;;;;;;;;;;;;;;;;;5033871;28;1842;-42
2023/01/18 03:25:15;;;;;;;;;;;;;;;;;;5033882;28;2189;-42
2023/01/18 03:36:05;;;;;;;;;;;;;;;;;;5033867;28;1809;-42
2023/01/18 03:38:36;;;;;;;;;;;;;;;;;;5033914;28;1982;-44
2023/01/18 03:41:04;;;;;;;;;;;;;;;;;;5033582;28;2022;-42
2023/01/18 03:43:35;;;;;;;;;;;;;;;;;;5034071;28;1951;-43
2023/01/18 03:46:03;;;;;;;;;;;;;;;;;;5033719;28;2183;-44
2023/01/18 03:48:31;;;;;;;;;;;;;;;;;;5033355;28;1914;-45
2023/01/18 03:51:04;;;;;;;;;;;;;;;;;;5033310;28;2014;-42
2023/01/18 03:53:37;;;;;;;;;;;;;;;;;;5033210;28;1608;-41
2023/01/18 03:56:08;;;;;;;;;;;;;;;;;;5033382;28;1964;-44
2023/01/18 03:58:36;;;;;;;;;;;;;;;;;;5033402;28;1545;-42
2023/01/18 04:01:03;;;;;;;;;;;;;;;;;;5033212;28;2150;-43
2023/01/18 04:03:31;;;;;;;;;;;;;;;;;;5033104;28;1823;-41
2023/01/18 04:05:59;;;;;;;;;;;;;;;;;;5032950;28;1706;-40
2023/01/18 04:08:26;;;;;;;;;;;;;;;;;;5033026;28;2083;-44
2023/01/18 04:10:53;;;;;;;;;;;;;;;;;;5033149;28;1906;-44
2023/01/18 04:13:21;;;;;;;;;;;;;;;;;;5032850;28;1935;-42
2023/01/18 04:15:48;;;;;;;;;;;;;;;;;;5031788;28;2166;-43
2023/01/18 04:18:15;;;;;;;;;;;;;;;;;;5032714;28;1860;-43
2023/01/18 04:20:42;;;;;;;;;;;;;;;;;;5032771;28;2124;-42
2023/01/18 04:23:12;;;;;;;;;;;;;;;;;;5032910;28;1836;-44
2023/01/18 04:25:39;;;;;;;;;;;;;;;;;;5031842;28;2153;-49
2023/01/18 04:28:06;;;;;;;;;;;;;;;;;;5032729;28;2263;-43
2023/01/18 04:30:33;;;;;;;;;;;;;;;;;;5031253;28;1985;-42
2023/01/18 04:33:01;;;;;;;;;;;;;;;;;;5032164;28;2114;-43
2023/01/18 04:35:28;;;;;;;;;;;;;;;;;;5032506;28;1809;-44
2023/01/18 04:37:55;;;;;;;;;;;;;;;;;;5032540;28;1752;-42
2023/01/18 04:40:22;;;;;;;;;;;;;;;;;;5032302;28;1920;-40
2023/01/18 04:42:53;;;;;;;;;;;;;;;;;;5032423;28;1805;-41
2023/01/18 04:45:20;;;;;;;;;;;;;;;;;;5031743;28;1930;-42
2023/01/18 04:47:47;;;;;;;;;;;;;;;;;;5032314;28;1931;-42
2023/01/18 04:50:14;;;;;;;;;;;;;;;;;;5032257;28;1954;-41
2023/01/18 04:52:42;;;;;;;;;;;;;;;;;;5032175;28;2087;-45
2023/01/18 04:55:14;;;;;;;;;;;;;;;;;;5032365;28;1734;-43
2023/01/18 04:57:42;;;;;;;;;;;;;;;;;;4993419;28;9841;-41
2023/01/18 05:00:14;;;;;;;;;;;;;;;;;;5027206;28;6369;-41
2023/01/18 05:02:41;;;;;;;;;;;;;;;;;;5052068;28;2066;-43
2023/01/18 05:05:08;;;;;;;;;;;;;;;;;;5052152;28;1942;-42
2023/01/18 05:07:36;;;;;;;;;;;;;;;;;;5051658;28;1962;-41
2023/01/18 05:10:03;;;;;;;;;;;;;;;;;;5051579;28;2112;-43
2023/01/18 05:12:30;;;;;;;;;;;;;;;;;;5051561;28;1608;-42
2023/01/18 05:14:58;;;;;;;;;;;;;;;;;;5051347;28;2165;-42
2023/01/18 05:17:29;;;;;;;;;;;;;;;;;;5051746;28;2300;-40
2023/01/18 05:19:57;;;;;;;;;;;;;;;;;;5051495;28;1965;-40
2023/01/18 05:22:24;;;;;;;;;;;;;;;;;;5051359;28;1958;-42
2023/01/18 05:24:52;;;;;;;;;;;;;;;;;;5051619;28;1748;-41
2023/01/18 05:27:19;;;;;;;;;;;;;;;;;;5024097;28;2269;-41
2023/01/18 05:29:47;;;;;;;;;;;;;;;;;;5047568;28;1914;-42
2023/01/18 05:32:14;;;;;;;;;;;;;;;;;;5050990;28;1821;-42
2023/01/18 05:34:42;;;;;;;;;;;;;;;;;;5050594;28;2117;-42
2023/01/18 05:37:10;;;;;;;;;;;;;;;;;;5049601;28;1811;-41
2023/01/18 05:39:37;;;;;;;;;;;;;;;;;;5051059;28;1903;-41
2023/01/18 05:42:05;;;;;;;;;;;;;;;;;;5051200;28;2089;-41
2023/01/18 05:44:32;;;;;;;;;;;;;;;;;;5048863;28;2113;-42
2023/01/18 05:46:59;;;;;;;;;;;;;;;;;;5051167;28;2299;-41
2023/01/18 05:49:30;;;;;;;;;;;;;;;;;;5051199;28;2062;-42
2023/01/18 05:51:57;;;;;;;;;;;;;;;;;;5046622;28;2007;-42
2023/01/18 05:54:24;;;;;;;;;;;;;;;;;;5050856;28;2113;-43
2023/01/18 05:56:51;;;;;;;;;;;;;;;;;;5046765;28;1520;-41
2023/01/18 05:59:18;;;;;;;;;;;;;;;;;;5045869;28;1999;-42
2023/01/18 06:01:45;;;;;;;;;;;;;;;;;;5050916;28;1375;-41
2023/01/18 06:04:13;;;;;;;;;;;;;;;;;;5050891;28;2045;-40
2023/01/18 06:06:40;;;;;;;;;;;;;;;;;;5036645;28;1759;-42
2023/01/18 06:09:07;;;;;;;;;;;;;;;;;;5050438;28;2012;-42
2023/01/18 06:11:34;;;;;;;;;;;;;;;;;;5050686;28;2143;-42
2023/01/18 06:14:01;;;;;;;;;;;;;;;;;;5050740;28;2161;-42
2023/01/18 06:16:29;;;;;;;;;;;;;;;;;;5050559;28;1525;-43
2023/01/18 06:18:56;;;;;;;;;;;;;;;;;;5051244;28;1702;-42
2023/01/18 06:21:23;;;;;;;;;;;;;;;;;;5050427;28;2044;-43
2023/01/18 06:23:50;;;;;;;;;;;;;;;;;;5050841;28;2274;-40
2023/01/18 06:26:17;;;;;;;;;;;;;;;;;;5050529;28;1990;-41
2023/01/18 06:28:45;;;;;;;;;;;;;;;;;;5051050;28;1656;-42
2023/01/18 06:31:12;;;;;;;;;;;;;;;;;;5050791;28;2088;-43
2023/01/18 06:33:39;;;;;;;;;;;;;;;;;;5049518;28;1658;-43
2023/01/18 06:36:06;;;;;;;;;;;;;;;;;;5049751;28;1830;-41
2023/01/18 06:38:34;;;;;;;;;;;;;;;;;;5050396;28;1833;-42
2023/01/18 06:41:01;;;;;;;;;;;;;;;;;;5050674;28;2133;-44
2023/01/18 06:43:28;;;;;;;;;;;;;;;;;;5050017;28;2005;-42
2023/01/18 06:45:56;;;;;;;;;;;;;;;;;;5050548;28;1717;-42
2023/01/18 06:48:23;;;;;;;;;;;;;;;;;;5050743;28;2051;-42
2023/01/18 06:50:51;;;;;;;;;;;;;;;;;;5050404;28;2069;-42
2023/01/18 06:53:19;;;;;;;;;;;;;;;;;;5049311;28;2078;-41
2023/01/18 06:55:53;;;;;;;;;;;;;;;;;;5050418;28;1721;-41
2023/01/18 06:58:20;;;;;;;;;;;;;;;;;;5050120;28;2118;-43
2023/01/18 07:00:47;;;;;;;;;;;;;;;;;;5050295;28;1861;-41
2023/01/18 07:03:14;;;;;;;;;;;;;;;;;;5050292;28;1682;-41
2023/01/18 07:05:42;;;;;;;;;;;;;;;;;;5050239;28;2052;-42
2023/01/18 07:08:09;;;;;;;;;;;;;;;;;;5052543;28;2057;-42
2023/01/18 07:10:36;;;;;;;;;;;;;;;;;;5051500;28;1999;-41
2023/01/18 07:13:03;;;;;;;;;;;;;;;;;;5053920;28;1712;-42
2023/01/18 07:15:30;;;;;;;;;;;;;;;;;;5053678;28;1660;-42
2023/01/18 07:17:58;;;;;;;;;;;;;;;;;;5053469;28;2037;-42
2023/01/18 07:20:25;;;;;;;;;;;;;;;;;;5053629;28;1976;-43
2023/01/18 07:22:52;;;;;;;;;;;;;;;;;;5053717;28;1872;-42
2023/01/18 07:25:19;;;;;;;;;;;;;;;;;;5052767;28;1617;-43
2023/01/18 07:27:47;;;;;;;;;;;;;;;;;;5053595;28;1848;-42
2023/01/18 07:30:15;;;;;;;;;;;;;;;;;;5053212;28;2001;-42
2023/01/18 07:32:49;;;;;;;;;;;;;;;;;;5053615;28;2035;-41
2023/01/18 07:35:18;;;;;;;;;;;;;;;;;;5045752;28;1722;-41
2023/01/18 07:37:49;;;;;;;;;;;;;;;;;;5053818;28;2497;-42
2023/01/18 07:40:17;;;;;;;;;;;;;;;;;;5053036;28;1827;-42
2023/01/18 07:42:44;;;;;;;;;;;;;;;;;;5053101;28;1820;-43
2023/01/18 07:45:12;;;;;;;;;;;;;;;;;;5053421;28;1837;-41
2023/01/18 07:47:40;;;;;;;;;;;;;;;;;;5053176;28;2154;-41
2023/01/18 07:50:08;;;;;;;;;;;;;;;;;;5042489;28;2001;-41
2023/01/18 07:52:35;;;;;;;;;;;;;;;;;;5053432;28;2181;-44
2023/01/18 07:55:02;;;;;;;;;;;;;;;;;;5052990;28;2178;-41
2023/01/18 07:57:32;;;;;;;;;;;;;;;;;;5053265;28;2386;-43
2023/01/18 07:59:59;;;;;;;;;;;;;;;;;;5052962;28;1742;-42
2023/01/18 08:02:26;;;;;;;;;;;;;;;;;;5053172;28;2027;-43
2023/01/18 08:04:53;;;;;;;;;;;;;;;;;;5052832;28;1719;-42
2023/01/18 08:07:21;;;;;;;;;;;;;;;;;;5053329;28;1579;-42
2023/01/18 08:09:49;;;;;;;;;;;;;;;;;;5052718;28;1971;-43
2023/01/18 08:12:17;;;;;;;;;;;;;;;;;;5052841;28;2248;-43
2023/01/18 08:14:44;;;;;;;;;;;;;;;;;;5052826;28;1593;-42
2023/01/18 08:17:11;;;;;;;;;;;;;;;;;;5052417;28;1961;-42
2023/01/18 08:19:39;;;;;;;;;;;;;;;;;;5051614;28;1900;-40
2023/01/18 08:22:06;;;;;;;;;;;;;;;;;;5052528;28;1921;-41
2023/01/18 08:24:34;;;;;;;;;;;;;;;;;;5052445;28;1902;-42
2023/01/18 08:27:01;;;;;;;;;;;;;;;;;;5052676;28;1930;-43
2023/01/18 08:29:28;;;;;;;;;;;;;;;;;;5052267;28;1682;-42
2023/01/18 08:31:55;;;;;;;;;;;;;;;;;;5052004;28;2019;-43
2023/01/18 08:34:22;;;;;;;;;;;;;;;;;;5052518;28;1603;-42
2023/01/18 08:36:50;;;;;;;;;;;;;;;;;;5051493;28;1995;-43
2023/01/18 08:39:17;;;;;;;;;;;;;;;;;;5041315;28;1832;-41
2023/01/18 08:41:45;;;;;;;;;;;;;;;;;;5052147;28;1915;-44
2023/01/18 08:44:12;;;;;;;;;;;;;;;;;;5052118;28;1840;-42
2023/01/18 08:46:40;;;;;;;;;;;;;;;;;;5045981;28;1865;-43
2023/01/18 08:49:07;;;;;;;;;;;;;;;;;;5048545;28;2048;-41
2023/01/18 08:51:34;;;;;;;;;;;;;;;;;;5044969;28;2023;-42
2023/01/18 08:54:01;;;;;;;;;;;;;;;;;;5050238;28;2310;-42
2023/01/18 08:56:29;;;;;;;;;;;;;;;;;;5051940;28;2235;-42
2023/01/18 08:58:57;;;;;;;;;;;;;;;;;;5051925;28;1669;-41
2023/01/18 09:01:24;;;;;;;;;;;;;;;;;;5050675;28;1900;-42
2023/01/18 09:03:56;;;;;;;;;;;;;;;;;;5051807;28;1881;-41
2023/01/18 09:06:24;;;;;;;;;;;;;;;;;;5051964;28;2090;-42
2023/01/18 09:08:51;;;;;;;;;;;;;;;;;;5051892;28;2324;-44
2023/01/18 09:11:19;;;;;;;;;;;;;;;;;;5043630;28;1904;-41
2023/01/18 09:13:47;;;;;;;;;;;;;;;;;;5039302;28;1727;-41
2023/01/18 09:16:26;;;;;;;;;;;;;;;;;;5051613;28;1676;-41
2023/01/18 09:18:55;;;;;;;;;;;;;;;;;;5051553;28;2206;-42
2023/01/18 09:21:22;;;;;;;;;;;;;;;;;;5051391;28;1828;-42
2023/01/18 09:23:49;;;;;;;;;;;;;;;;;;5040597;28;2000;-43
2023/01/18 09:26:19;;;;;;;;;;;;;;;;;;5042378;28;2021;-43
2023/01/18 09:28:47;;;;;;;;;;;;;;;;;;5050858;28;1685;-41
2023/01/18 09:31:14;;;;;;;;;;;;;;;;;;5050582;28;2169;-42
2023/01/18 09:33:41;;;;;;;;;;;;;;;;;;5051342;28;2057;-42
2023/01/18 09:36:20;;;;;;;;;;;;;;;;;;5050989;28;2215;-42
2023/01/18 09:38:47;;;;;;;;;;;;;;;;;;5050989;28;2103;-41
2023/01/18 09:41:23;;;;;;;;;;;;;;;;;;5050027;28;1674;-42
2023/01/18 09:43:53;;;;;;;;;;;;;;;;;;5050844;28;2176;-42
2023/01/18 09:46:21;;;;;;;;;;;;;;;;;;5051326;28;1944;-44
2023/01/18 09:48:53;;;;;;;;;;;;;;;;;;5041163;28;1992;-41
2023/01/18 09:51:22;;;;;;;;;;;;;;;;;;5054153;28;2214;-43
2023/01/18 09:53:58;;;;;;;;;;;;;;;;;;5050757;28;1644;-44
2023/01/18 09:56:27;;;;;;;;;;;;;;;;;;5040260;28;2078;-42
2023/01/18 09:59:02;;;;;;;;;;;;;;;;;;5049937;28;1993;-42
2023/01/18 10:01:33;;;;;;;;;;;;;;;;;;5051117;28;2260;-42
2023/01/18 10:04:01;;;;;;;;;;;;;;;;;;5050902;28;1947;-41
2023/01/18 10:06:29;;;;;;;;;;;;;;;;;;5050963;28;1896;-42
2023/01/18 10:08:57;;;;;;;;;;;;;;;;;;5041027;28;1427;-43
2023/01/18 10:11:28;;;;;;;;;;;;;;;;;;5037537;28;1987;-42
2023/01/18 10:13:59;;;;;;;;;;;;;;;;;;5051292;28;1746;-42
2023/01/18 10:16:26;;;;;;;;;;;;;;;;;;5040045;28;1961;-43
2023/01/18 10:18:56;;;;;;;;;;;;;;;;;;5036598;28;1958;-41
2023/01/18 10:21:41;;;;;;;;;;;;;;;;;;5050529;28;1731;-41
2023/01/18 10:24:11;;;;;;;;;;;;;;;;;;5045482;28;1679;-43
2023/01/18 10:26:43;;;;;;;;;;;;;;;;;;5050375;28;2072;-42
2023/01/18 10:29:15;;;;;;;;;;;;;;;;;;5050857;28;2203;-41
2023/01/18 10:31:45;;;;;;;;;;;;;;;;;;5050261;28;1982;-41
2023/01/18 10:34:20;;;;;;;;;;;;;;;;;;5050564;28;2382;-43
2023/01/18 10:36:54;;;;;;;;;;;;;;;;;;5050505;28;1926;-41
2023/01/18 10:39:33;;;;;;;;;;;;;;;;;;5050590;28;1959;-42
2023/01/18 10:42:07;;;;;;;;;;;;;;;;;;5051134;28;1737;-42
2023/01/18 10:44:34;;;;;;;;;;;;;;;;;;5054631;28;2081;-42
2023/01/18 10:47:01;;;;;;;;;;;;;;;;;;5054613;28;2083;-42
2023/01/18 10:49:39;;;;;;;;;;;;;;;;;;5054604;28;1937;-45
2023/01/18 10:52:36;;;;;;;;;;;;;;;;;;5035048;28;2048;-42
2023/01/18 10:55:06;;;;;;;;;;;;;;;;;;5025913;28;1498;-41
2023/01/18 10:57:35;;;;;;;;;;;;;;;;;;5034691;28;1999;-42
2023/01/18 11:00:11;;;;;;;;;;;;;;;;;;5034400;28;1712;-41
2023/01/18 11:02:38;;;;;;;;;;;;;;;;;;5033834;28;1800;-42
2023/01/18 11:05:21;;;;;;;;;;;;;;;;;;5034555;28;2175;-42
2023/01/18 11:08:08;;;;;;;;;;;;;;;;;;5034236;28;1625;-41
2023/01/18 11:10:36;;;;;;;;;;;;;;;;;;5033745;28;2030;-43
2023/01/18 11:13:22;;;;;;;;;;;;;;;;;;5034297;28;2059;-41
2023/01/18 11:16:01;;;;;;;;;;;;;;;;;;5034223;28;2063;-41
2023/01/18 11:18:28;;;;;;;;;;;;;;;;;;5034325;28;1998;-42
2023/01/18 11:20:56;;;;;;;;;;;;;;;;;;5034054;28;1819;-42
2023/01/18 11:23:25;;;;;;;;;;;;;;;;;;5034023;28;1996;-42
2023/01/18 11:25:53;;;;;;;;;;;;;;;;;;5033800;28;1728;-43
2023/01/18 11:28:23;;;;;;;;;;;;;;;;;;5051445;28;1893;-42
2023/01/18 11:30:59;;;;;;;;;;;;;;;;;;5053874;28;2003;-43
2023/01/18 11:33:26;;;;;;;;;;;;;;;;;;5053459;28;1869;-42
2023/01/18 11:35:55;;;;;;;;;;;;;;;;;;5053578;28;1809;-42
2023/01/18 11:38:25;;;;;;;;;;;;;;;;;;5053525;28;2089;-42
2023/01/18 11:41:24;;;;;;;;;;;;;;;;;;5053670;28;2022;-41
2023/01/18 11:43:57;;;;;;;;;;;;;;;;;;5038139;28;1598;-42
2023/01/18 11:46:25;;;;;;;;;;;;;;;;;;5053087;28;1801;-43
2023/01/18 11:49:10;;;;;;;;;;;;;;;;;;5053416;28;1730;-42
2023/01/18 11:51:43;;;;;;;;;;;;;;;;;;5053290;28;2051;-42
2023/01/18 11:54:21;;;;;;;;;;;;;;;;;;5053051;28;1381;-42
2023/01/18 11:56:50;;;;;;;;;;;;;;;;;;5052740;28;1890;-41
2023/01/18 11:59:20;;;;;;;;;;;;;;;;;;5053163;28;2176;-40
2023/01/18 12:02:02;;;;;;;;;;;;;;;;;;5053098;28;2178;-41
2023/01/18 12:04:44;;;;;;;;;;;;;;;;;;5053174;28;1516;-41
2023/01/18 12:07:23;;;;;;;;;;;;;;;;;;5052931;28;1955;-41
2023/01/18 12:09:52;;;;;;;;;;;;;;;;;;5052966;28;1957;-42
2023/01/18 12:12:19;;;;;;;;;;;;;;;;;;5052882;28;2008;-41
2023/01/18 12:15:16;;;;;;;;;;;;;;;;;;5053009;28;1701;-42
2023/01/18 12:17:53;;;;;;;;;;;;;;;;;;5036348;28;1830;-41
2023/01/18 12:20:43;;;;;;;;;;;;;;;;;;5052969;28;1504;-41
2023/01/18 12:23:24;;;;;;;;;;;;;;;;;;5052602;28;2278;-40
2023/01/18 12:26:14;;;;;;;;;;;;;;;;;;5052843;28;1844;-41
2023/01/18 12:28:45;;;;;;;;;;;;;;;;;;5023030;28;1789;-41
2023/01/18 12:31:31;;;;;;;;;;;;;;;;;;5032570;28;1910;-42
2023/01/18 12:34:25;;;;;;;;;;;;;;;;;;4993486;28;2126;-42
2023/01/18 12:37:10;;;;;;;;;;;;;;;;;;4992190;28;2333;-41
2023/01/18 12:39:49;;;;;;;;;;;;;;;;;;4993197;28;1853;-41
2023/01/18 12:42:37;;;;;;;;;;;;;;;;;;4993178;28;2086;-44
2023/01/18 12:45:40;;;;;;;;;;;;;;;;;;4992701;28;2129;-41
2023/01/18 12:48:19;;;;;;;;;;;;;;;;;;4990252;28;1957;-41
2023/01/18 12:50:48;;;;;;;;;;;;;;;;;;4992778;28;1927;-41
2023/01/18 12:53:27;;;;;;;;;;;;;;;;;;4993103;28;1935;-39
2023/01/18 12:55:55;;;;;;;;;;;;;;;;;;4992960;28;1521;-41
2023/01/18 12:58:24;;;;;;;;;;;;;;;;;;4992564;28;2303;-42
2023/01/18 13:00:53;;;;;;;;;;;;;;;;;;4992661;28;1678;-42
2023/01/18 13:03:22;;;;;;;;;;;;;;;;;;4992581;28;2163;-43
2023/01/18 13:05:54;;;;;;;;;;;;;;;;;;4992255;28;1747;-42
2023/01/18 13:08:25;;;;;;;;;;;;;;;;;;4992464;28;1571;-42
2023/01/18 13:10:55;;;;;;;;;;;;;;;;;;4992487;28;2004;-41
2023/01/18 13:13:25;;;;;;;;;;;;;;;;;;4991372;28;1713;-40
2023/01/18 13:16:00;;;;;;;;;;;;;;;;;;4992767;28;2034;-41
2023/01/18 13:18:28;;;;;;;;;;;;;;;;;;4992567;28;2216;-43
2023/01/18 13:21:10;;;;;;;;;;;;;;;;;;4992139;28;1816;-41
2023/01/18 13:23:50;;;;;;;;;;;;;;;;;;4992340;28;1873;-42
2023/01/18 13:26:22;;;;;;;;;;;;;;;;;;4993541;28;1979;-42
2023/01/18 13:29:04;;;;;;;;;;;;;;;;;;5011754;28;1868;-42
2023/01/18 13:31:32;;;;;;;;;;;;;;;;;;5015120;28;2010;-41
2023/01/18 13:33:59;;;;;;;;;;;;;;;;;;5051550;28;1638;-44
2023/01/18 13:36:26;;;;;;;;;;;;;;;;;;5051495;28;2159;-43
2023/01/18 13:38:56;;;;;;;;;;;;;;;;;;5051288;28;1600;-41
2023/01/18 13:41:31;;;;;;;;;;;;;;;;;;5051436;28;1452;-43
2023/01/18 13:44:03;;;;;;;;;;;;;;;;;;5051016;28;2232;-42
2023/01/18 13:46:33;;;;;;;;;;;;;;;;;;5051265;28;2219;-41
2023/01/18 13:49:19;;;;;;;;;;;;;;;;;;5050990;28;2033;-41
2023/01/18 13:52:22;;;;;;;;;;;;;;;;;;5050993;28;1977;-41
2023/01/18 13:54:56;;;;;;;;;;;;;;;;;;5051025;28;1770;-41
2023/01/18 13:57:24;;;;;;;;;;;;;;;;;;5033124;28;2404;-42
2023/01/18 13:59:52;;;;;;;;;;;;;;;;;;5050865;28;1948;-41
2023/01/18 14:02:22;;;;;;;;;;;;;;;;;;5050946;28;1984;-41
2023/01/18 14:05:00;;;;;;;;;;;;;;;;;;5050918;28;1834;-42
2023/01/18 14:07:27;;;;;;;;;;;;;;;;;;5050773;28;2380;-42
2023/01/18 14:09:59;;;;;;;;;;;;;;;;;;5051036;28;1693;-43
2023/01/18 14:12:45;;;;;;;;;;;;;;;;;;5050651;28;1969;-41
2023/01/18 14:15:23;;;;;;;;;;;;;;;;;;5050938;28;2419;-42
2023/01/18 14:17:50;;;;;;;;;;;;;;;;;;5053057;28;2040;-41
2023/01/18 14:20:42;;;;;;;;;;;;;;;;;;5054778;28;1855;-41
2023/01/18 14:23:29;;;;;;;;;;;;;;;;;;5054912;28;1913;-42
2023/01/18 14:25:57;;;;;;;;;;;;;;;;;;5024185;28;1870;-40
2023/01/18 14:28:35;;;;;;;;;;;;;;;;;;5036516;28;1800;-41
2023/01/18 14:31:03;;;;;;;;;;;;;;;;;;5016600;28;2450;-41
2023/01/18 14:33:32;;;;;;;;;;;;;;;;;;5034648;28;2119;-42
2023/01/18 14:36:00;;;;;;;;;;;;;;;;;;5034843;28;1625;-41
2023/01/18 14:38:28;;;;;;;;;;;;;;;;;;5034674;28;1758;-42
2023/01/18 14:41:01;;;;;;;;;;;;;;;;;;5034875;28;1851;-40
2023/01/18 14:43:41;;;;;;;;;;;;;;;;;;5034222;28;2220;-42
2023/01/18 14:46:13;;;;;;;;;;;;;;;;;;5034424;28;1707;-40
2023/01/18 14:48:50;;;;;;;;;;;;;;;;;;5034445;28;2007;-40
2023/01/18 14:51:18;;;;;;;;;;;;;;;;;;5034698;28;1975;-40
2023/01/18 14:53:47;;;;;;;;;;;;;;;;;;5034557;28;1927;-40
2023/01/18 14:56:43;;;;;;;;;;;;;;;;;;5034067;28;1652;-40
2023/01/18 14:59:23;;;;;;;;;;;;;;;;;;5025778;28;1568;-41
2023/01/18 15:01:52;;;;;;;;;;;;;;;;;;5034393;28;1851;-41
2023/01/18 15:04:24;;;;;;;;;;;;;;;;;;5034220;28;1654;-40
2023/01/18 15:06:57;;;;;;;;;;;;;;;;;;5034253;28;1435;-44
2023/01/18 15:09:25;;;;;;;;;;;;;;;;;;5034252;28;1836;-40
2023/01/18 15:11:55;;;;;;;;;;;;;;;;;;5034117;28;1906;-40
2023/01/18 15:14:24;;;;;;;;;;;;;;;;;;5034086;28;2175;-41
2023/01/18 15:16:53;;;;;;;;;;;;;;;;;;5033977;28;1847;-39
2023/01/18 15:19:40;;;;;;;;;;;;;;;;;;5033991;28;1546;-40
2023/01/18 15:22:10;;;;;;;;;;;;;;;;;;5033981;28;2123;-40
2023/01/18 15:24:38;;;;;;;;;;;;;;;;;;5033930;28;1652;-40
2023/01/18 15:27:11;;;;;;;;;;;;;;;;;;5040832;28;2199;-39
2023/01/18 15:29:38;;;;;;;;;;;;;;;;;;5053277;28;1798;-41
2023/01/18 15:32:10;;;;;;;;;;;;;;;;;;5053403;28;2018;-42
2023/01/18 15:34:39;;;;;;;;;;;;;;;;;;5053480;28;1662;-42
2023/01/18 15:37:09;;;;;;;;;;;;;;;;;;5052175;28;1817;-38
2023/01/18 15:39:46;;;;;;;;;;;;;;;;;;5053563;28;2267;-44
2023/01/18 15:42:14;;;;;;;;;;;;;;;;;;5053457;28;1863;-41
2023/01/18 15:44:45;;;;;;;;;;;;;;;;;;5053531;28;1642;-40
2023/01/18 15:47:14;;;;;;;;;;;;;;;;;;5053518;28;1491;-40
2023/01/18 15:49:42;;;;;;;;;;;;;;;;;;5053170;28;2109;-44
2023/01/18 15:52:10;;;;;;;;;;;;;;;;;;5053451;28;1981;-40
2023/01/18 15:54:37;;;;;;;;;;;;;;;;;;5053589;28;2052;-41
2023/01/18 15:57:18;;;;;;;;;;;;;;;;;;5053220;28;1817;-42
2023/01/18 15:59:45;;;;;;;;;;;;;;;;;;5051754;28;1682;-42
2023/01/18 16:02:17;;;;;;;;;;;;;;;;;;5052876;28;1960;-41
2023/01/18 16:04:45;;;;;;;;;;;;;;;;;;5052975;28;2055;-40
2023/01/18 16:07:33;;;;;;;;;;;;;;;;;;5053282;28;1981;-40
2023/01/18 16:10:19;;;;;;;;;;;;;;;;;;5052910;28;2048;-43
2023/01/18 16:12:46;;;;;;;;;;;;;;;;;;5052912;28;1914;-42
2023/01/18 16:15:26;;;;;;;;;;;;;;;;;;5052860;28;1862;-42
2023/01/18 16:18:01;;;;;;;;;;;;;;;;;;5053094;28;1738;-40
2023/01/18 16:20:32;;;;;;;;;;;;;;;;;;5052933;28;2043;-41
2023/01/18 16:23:04;;;;;;;;;;;;;;;;;;5052885;28;1746;-42
2023/01/18 16:25:31;;;;;;;;;;;;;;;;;;5052771;28;1811;-43
2023/01/18 16:28:01;;;;;;;;;;;;;;;;;;5052647;28;1891;-40
2023/01/18 16:30:32;;;;;;;;;;;;;;;;;;5052603;28;2028;-41
2023/01/18 16:33:11;;;;;;;;;;;;;;;;;;5052309;28;1953;-41
2023/01/18 16:35:40;;;;;;;;;;;;;;;;;;5052406;28;1919;-41
2023/01/18 16:38:14;;;;;;;;;;;;;;;;;;5052317;28;2110;-39
2023/01/18 16:40:43;;;;;;;;;;;;;;;;;;5051391;28;2111;-41
2023/01/18 16:43:19;;;;;;;;;;;;;;;;;;5052247;28;2289;-41
2023/01/18 16:45:48;;;;;;;;;;;;;;;;;;5052301;28;1825;-40
2023/01/18 16:48:16;;;;;;;;;;;;;;;;;;5052146;28;1991;-41
2023/01/18 16:50:44;;;;;;;;;;;;;;;;;;5052181;28;1622;-39
2023/01/18 16:53:11;;;;;;;;;;;;;;;;;;5051500;28;1909;-40
2023/01/18 16:55:38;;;;;;;;;;;;;;;;;;5032313;28;1727;-39
2023/01/18 16:58:06;;;;;;;;;;;;;;;;;;5032235;28;1826;-42
2023/01/18 17:00:49;;;;;;;;;;;;;;;;;;5031794;28;1921;-40
2023/01/18 17:03:16;;;;;;;;;;;;;;;;;;5031562;28;1997;-39
2023/01/18 17:05:43;;;;;;;;;;;;;;;;;;5031853;28;1945;-39
2023/01/18 17:08:14;;;;;;;;;;;;;;;;;;5031791;28;1637;-40
2023/01/18 17:10:42;;;;;;;;;;;;;;;;;;5031838;28;1831;-40
2023/01/18 17:13:09;;;;;;;;;;;;;;;;;;5031795;28;1984;-39
2023/01/18 17:15:40;;;;;;;;;;;;;;;;;;5031632;28;1679;-40
2023/01/18 17:18:12;;;;;;;;;;;;;;;;;;5031618;28;1456;-40
2023/01/18 17:20:39;;;;;;;;;;;;;;;;;;5031641;28;1751;-39
2023/01/18 17:23:06;;;;;;;;;;;;;;;;;;5031471;28;1860;-40
2023/01/18 17:25:36;;;;;;;;;;;;;;;;;;5031528;28;1681;-40
2023/01/18 17:28:04;;;;;;;;;;;;;;;;;;5046885;28;1792;-39
2023/01/18 17:30:31;;;;;;;;;;;;;;;;;;5051224;28;1621;-39
2023/01/18 17:32:59;;;;;;;;;;;;;;;;;;5051308;28;1934;-40
2023/01/18 17:35:27;;;;;;;;;;;;;;;;;;5051677;28;2157;-40
2023/01/18 17:37:57;;;;;;;;;;;;;;;;;;5034099;28;1812;-39
2023/01/18 17:40:31;;;;;;;;;;;;;;;;;;5051230;28;1918;-40
2023/01/18 17:43:09;;;;;;;;;;;;;;;;;;5033432;28;2115;-40
2023/01/18 17:45:38;;;;;;;;;;;;;;;;;;5051275;28;1483;-40
2023/01/18 17:48:07;;;;;;;;;;;;;;;;;;5051300;28;1822;-41
2023/01/18 17:50:37;;;;;;;;;;;;;;;;;;5051198;28;1703;-41
2023/01/18 17:53:04;;;;;;;;;;;;;;;;;;5049874;28;1994;-39
2023/01/18 17:55:31;;;;;;;;;;;;;;;;;;5032961;28;1598;-40
2023/01/18 17:58:01;;;;;;;;;;;;;;;;;;5050970;28;1695;-40
2023/01/18 18:00:28;;;;;;;;;;;;;;;;;;5051057;28;1552;-40
2023/01/18 18:02:56;;;;;;;;;;;;;;;;;;5051136;28;1966;-41
2023/01/18 18:05:24;;;;;;;;;;;;;;;;;;5050822;28;1974;-40
2023/01/18 18:07:51;;;;;;;;;;;;;;;;;;5050677;28;1653;-40